• Join FlightAware (Why Join?)
  • Login
  • US Flag 
12:45PM EDT


 

Airport Tracker/Info


-or-


 

Live Flight TrackerFlight Track Log ✈ EJA982 ✈ 14-Jun-2013 ✈ KLAX - KTEB

Flight Track Log - Related Links

Times and Time Zones

All times are in EDT time to prevent confusion due to time zone crossing. See the EJA982 flight status page for this flight to view local times or setup timezone preferences in your user account.

Time Position Orientation Groundspeed Altitude Reporting Facility
EDT Latitude Longitude Course Direction KTS MPH feet Rate Location/Type
07:19PM 33.9000 -118.4833 198° South 260 299 2,900  Level Southern California TRACON
07:20PM 33.8253 -118.5131 198° South 268 308 7,200 3,360 Climbing Los Angeles Center
07:21PM 33.7475 -118.5158 182° South 281 323 10,500 2,880 Climbing Los Angeles Center
07:22PM 33.6789 -118.4519 142° Southeast 337 388 13,200 2,520 Climbing Los Angeles Center
07:23PM 33.6436 -118.3156 107° East 376 433 15,800 2,280 Climbing Los Angeles Center
07:24PM 33.6436 -118.1869 90° East 396 456 18,000 1,680 Climbing Los Angeles Center
07:25PM 33.6444 -118.0522 90° East 407 468 19,400 1,440 Climbing Los Angeles Center
07:26PM 33.6444 -117.9117 90° East 420 483 21,000 1,380 Climbing Los Angeles Center
07:27PM 33.6442 -117.7681 90° East 429 494 22,300 1,380 Climbing Los Angeles Center
07:28PM 33.6433 -117.5922 90° East 441 507 23,900 1,440 Climbing Los Angeles Center
07:30PM 33.6425 -117.4403 90° East 454 522 25,300 1,200 Climbing Los Angeles Center
07:31PM 33.6419 -117.2850 90° East 464 534 26,400 1,080 Climbing Los Angeles Center
07:32PM 33.6403 -117.1264 91° East 474 545 27,600 1,080 Climbing Los Angeles Center
07:33PM 33.6381 -116.9658 91° East 483 556 28,700 960 Climbing Los Angeles Center
07:34PM 33.6564 -116.7825 83° East 501 577 29,700 960 Climbing Los Angeles Center
07:35PM 33.6936 -116.6181 75° East 507 583 30,700 960 Climbing Los Angeles Center
07:36PM 33.7294 -116.4519 75° East 511 588 31,700 960 Climbing Los Angeles Center
07:37PM 33.7667 -116.2833 75° East 517 595 32,700 1,020 Climbing Los Angeles Center
07:38PM 33.8111 -116.0769 75° East 529 609 33,900 1,020 Climbing Los Angeles Center
07:39PM 33.8464 -115.9064 76° East 525 604 34,900 960 Climbing Los Angeles Center
07:40PM 33.8831 -115.7336 76° East 530 610 35,900 1,020 Climbing Los Angeles Center
07:41PM 33.9189 -115.5606 76° East 534 615 37,100 1,140 Climbing Los Angeles Center
07:42PM 33.9553 -115.3897 76° East 529 609 38,300 900 Climbing Los Angeles Center
07:43PM 33.9908 -115.2172 76° East 529 609 39,000 300 Climbing Los Angeles Center
07:44PM 34.0353 -115.0025 76° East 547 629 39,000  Level Los Angeles Center
07:45PM 34.0733 -114.8206 76° East 558 642 39,000  Level Los Angeles Center
07:46PM 34.1125 -114.6378 75° East 560 644 39,000  Level Los Angeles Center
07:47PM 34.1642 -114.4583 71° East 563 648 39,000  Level Los Angeles Center
07:48PM 34.1986 -114.3375 71° East 568 654 39,000  Level Albuquerque Center
07:49PM 34.2508 -114.1542 71° East 572 658 39,000  Level Albuquerque Center
07:50PM 34.3008 -113.9739 71° East 569 655 39,000  Level Albuquerque Center
07:51PM 34.3503 -113.7942 72° East 567 652 39,000  Level Albuquerque Center
07:52PM 34.3992 -113.6086 72° East 565 650 39,000  Level Albuquerque Center
07:53PM 34.4628 -113.4167 68° East 569 655 39,000 360 Level Albuquerque Center
07:54PM 34.5525 -113.2664 54° Northeast 559 643 39,800 780 Climbing Albuquerque Center
07:55PM 34.6422 -113.1175 54° Northeast 552 635 40,700 540 Climbing Albuquerque Center
07:56PM 34.7261 -112.9236 62° Northeast 548 631 41,000 120 Climbing Albuquerque Center
07:57PM 34.7919 -112.7567 64° Northeast 554 638 41,000  Level Albuquerque Center
07:58PM 34.8592 -112.5878 64° Northeast 559 643 41,000  Level Albuquerque Center
07:59PM 34.9275 -112.4189 64° Northeast 561 646 41,000  Level Albuquerque Center
08:00PM 34.9931 -112.2486 65° Northeast 563 648 41,000  Level Albuquerque Center
08:01PM 35.0736 -112.0456 64° Northeast 562 647 41,000  Level Albuquerque Center
08:02PM 35.1392 -111.8761 65° Northeast 559 643 41,000  Level Albuquerque Center
08:03PM 35.2086 -111.6950 65° Northeast 558 642 41,000  Level Albuquerque Center
08:04PM 35.2753 -111.5219 65° Northeast 561 646 41,000  Level Albuquerque Center
08:05PM 35.3400 -111.3528 65° Northeast 561 646 41,000  Level Albuquerque Center
08:06PM 35.4147 -111.1583 65° Northeast 563 648 41,000  Level Albuquerque Center
08:07PM 35.4781 -110.9922 65° Northeast 563 648 41,000  Level Albuquerque Center
08:08PM 35.5497 -110.7978 66° East 560 644 41,000  Level Albuquerque Center
08:09PM 35.6128 -110.6322 65° Northeast 560 644 41,000  Level Albuquerque Center
08:10PM 35.6847 -110.4397 65° Northeast 557 641 41,000  Level Albuquerque Center
08:11PM 35.7464 -110.2733 65° Northeast 557 641 41,000  Level Albuquerque Center
08:12PM 35.8081 -110.1067 65° Northeast 559 643 41,000  Level Albuquerque Center
08:14PM 35.8792 -109.9114 66° East 560 644 41,000  Level Denver Center
08:15PM 35.9522 -109.7144 65° Northeast 564 649 41,000  Level Denver Center
08:16PM 36.0131 -109.5450 66° East 564 649 41,000  Level Denver Center
08:17PM 36.0839 -109.3478 66° East 562 647 41,000  Level Denver Center
08:18PM 36.1453 -109.1778 66° East 562 647 41,000  Level Denver Center
08:19PM 36.2075 -109.0067 66° East 561 646 41,000  Level Denver Center
08:20PM 36.2806 -108.8044 66° East 564 649 41,000  Level Denver Center
08:21PM 36.3394 -108.6328 67° East 563 648 41,000  Level Denver Center
08:22PM 36.3975 -108.4633 67° East 557 641 41,000  Level Denver Center
08:23PM 36.4661 -108.2653 67° East 558 642 41,000  Level Denver Center
08:24PM 36.5244 -108.0975 67° East 555 639 41,000  Level Denver Center
08:25PM 36.5914 -107.9008 67° East 552 635 41,000  Level Denver Center
08:26PM 36.6483 -107.7336 67° East 550 633 41,000  Level Denver Center
08:27PM 36.7161 -107.5361 67° East 554 638 41,000  Level Denver Center
08:28PM 36.7722 -107.3664 68° East 554 638 41,000  Level Denver Center
08:29PM 36.8394 -107.1692 67° East 553 636 41,000  Level Denver Center
08:30PM 36.8967 -107.0003 67° East 553 636 41,000  Level Denver Center
08:31PM 36.9522 -106.8303 68° East 553 636 41,000  Level Denver Center
08:32PM 37.0175 -106.6325 67° East 552 635 41,000  Level Denver Center
08:33PM 37.0747 -106.4625 67° East 552 635 41,000  Level Denver Center
08:34PM 37.1386 -106.2647 68° East 550 633 41,000  Level Denver Center
08:35PM 37.1931 -106.0944 68° East 551 634 41,000  Level Denver Center
08:36PM 37.2572 -105.8933 68° East 555 639 41,000  Level Denver Center
08:37PM 37.3100 -105.7200 69° East 555 639 41,000  Level Denver Center
08:38PM 37.3656 -105.5472 68° East 558 642 41,000  Level Denver Center
08:39PM 37.4292 -105.3444 68° East 558 642 41,000  Level Denver Center
08:40PM 37.4911 -105.1514 68° East 560 644 41,000  Level Denver Center
08:41PM 37.5475 -104.9694 69° East 561 646 41,000  Level Denver Center
08:42PM 37.6006 -104.7947 69° East 558 642 41,000  Level Denver Center
08:43PM 37.6631 -104.5906 69° East 557 641 41,000  Level Denver Center
08:44PM 37.7175 -104.4164 68° East 553 636 41,000  Level Denver Center
08:45PM 37.7700 -104.2403 69° East 554 638 41,000  Level Denver Center
08:46PM 37.8333 -104.0350 69° East 554 638 41,000  Level Denver Center
08:48PM 37.8858 -103.8575 69° East 556 640 41,000  Level Denver Center
08:49PM 37.9381 -103.6800 69° East 558 642 41,000  Level Denver Center
08:50PM 37.9986 -103.4717 70° East 561 646 41,000  Level Denver Center
08:51PM 38.0508 -103.2944 69° East 561 646 41,000  Level Denver Center
08:52PM 38.1128 -103.0814 70° East 561 646 41,000  Level Denver Center
08:53PM 38.1642 -102.9025 70° East 564 649 41,000  Level Denver Center
08:54PM 38.2150 -102.7228 70° East 564 649 41,000  Level Denver Center
08:55PM 38.2747 -102.5131 70° East 565 650 41,000  Level Denver Center
08:56PM 38.3253 -102.3322 70° East 565 650 41,000  Level Denver Center
08:57PM 38.3844 -102.1214 70° East 564 649 41,000  Level Denver Center
08:58PM 38.4339 -101.9414 71° East 561 646 41,000  Level Denver Center
08:59PM 38.4925 -101.7322 70° East 560 644 41,000  Level Denver Center
09:00PM 38.5411 -101.5511 71° East 561 646 41,000  Level Denver Center
09:01PM 38.5911 -101.3686 71° East 567 652 41,000  Level Denver Center
09:02PM 38.6489 -101.1528 71° East 574 661 41,000  Level Denver Center
09:03PM 38.6981 -100.9694 71° East 569 655 41,000  Level Denver Center
09:04PM 38.7550 -100.7564 71° East 565 650 41,000  Level Denver Center
09:05PM 38.8022 -100.5733 72° East 565 650 41,000  Level Denver Center
09:06PM 38.8503 -100.3917 71° East 562 647 41,000  Level Denver Center
09:07PM 38.9050 -100.1775 72° East 563 648 41,000  Level Denver Center
09:08PM 38.9531 -99.9933 71° East 567 652 41,000  Level Denver Center
09:09PM 39.0067 -99.7789 72° East 564 649 41,000  Level Denver Center
09:10PM 39.0539 -99.5956 72° East 563 648 41,000  Level Denver Center
09:11PM 39.0803 -99.4867 73° East 560 644 41,000  Level Kansas City Center
09:12PM 39.1281 -99.2947 72° East 561 646 41,000  Level Kansas City Center
09:12PM 39.1531 -99.1997 71° East 560 644 41,000  Level Denver Center
09:13PM 39.1869 -99.0650 72° East 563 648 41,000  Level Kansas City Center
09:14PM 39.2339 -98.8681 73° East 555 639 41,000  Level Kansas City Center
09:15PM 39.2772 -98.6878 73° East 550 633 41,000  Level Kansas City Center
09:16PM 39.3239 -98.5017 72° East 558 642 41,000  Level Kansas City Center
09:17PM 39.3694 -98.3131 73° East 553 636 41,000  Level Kansas City Center
09:18PM 39.4161 -98.1144 73° East 546 628 41,000  Level Kansas City Center
09:19PM 39.4669 -97.9011 73° East 551 634 41,000  Level Kansas City Center
09:20PM 39.5139 -97.7047 73° East 559 643 41,000  Level Kansas City Center
09:21PM 39.5558 -97.5161 74° East 551 634 41,000  Level Kansas City Center
09:22PM 39.6006 -97.3258 73° East 552 635 41,000  Level Kansas City Center
09:23PM 39.6472 -97.1189 74° East 556 640 41,000  Level Kansas City Center
09:24PM 39.6911 -96.9281 73° East 554 638 41,000  Level Kansas City Center
09:25PM 39.7333 -96.7381 74° East 553 636 41,000  Level Kansas City Center
09:26PM 39.7736 -96.5547 74° East 550 633 41,000  Level Kansas City Center
09:27PM 39.8236 -96.3328 74° East 547 629 41,000  Level Kansas City Center
09:28PM 39.8608 -96.1586 74° East 549 632 41,000  Level Kansas City Center
09:29PM 39.9069 -95.9472 74° East 545 627 41,000  Level Kansas City Center
09:30PM 39.9464 -95.7633 74° East 546 628 41,000  Level Kansas City Center
09:31PM 39.9850 -95.5781 75° East 549 632 41,000 120 Level Kansas City Center
09:32PM 40.0306 -95.3608 75° East 552 635 41,300 600 Climbing Kansas City Center
09:33PM 40.0686 -95.1806 75° East 541 623 42,300 780 Climbing Kansas City Center
09:34PM 40.1111 -94.9747 75° East 527 606 43,000 300 Climbing Kansas City Center
09:35PM 40.1475 -94.7950 75° East 530 610 43,000  Level Kansas City Center
09:36PM 40.1847 -94.6139 75° East 536 617 43,000  Level Kansas City Center
09:38PM 40.2272 -94.4008 75° East 540 621 43,000  Level Kansas City Center
09:39PM 40.2628 -94.2183 76° East 540 621 43,000  Level Kansas City Center
09:40PM 40.2975 -94.0300 76° East 543 625 43,000  Level Kansas City Center
09:41PM 40.3356 -93.8408 75° East 542 624 43,000  Level Kansas City Center
09:42PM 40.3803 -93.6111 76° East 545 627 43,000  Level Kansas City Center
09:43PM 40.4178 -93.4200 75° East 545 627 43,000  Level Kansas City Center
09:44PM 40.4536 -93.2292 76° East 542 624 43,000  Level Kansas City Center
09:45PM 40.4936 -93.0225 76° East 542 624 43,000  Level Kansas City Center
09:46PM 40.5286 -92.8347 76° East 549 632 43,000  Level Kansas City Center
09:47PM 40.5633 -92.6422 77° East 557 641 43,000  Level Kansas City Center
09:48PM 40.6008 -92.4431 76° East 556 640 43,000  Level Kansas City Center
09:48PM 40.6292 -92.2892 76° East 544 626 43,000  Level Chicago Center
09:49PM 40.6628 -92.0947 77° East 545 627 43,000  Level Chicago Center
09:51PM 40.6983 -91.8989 76° East 550 633 43,000  Level Chicago Center
09:52PM 40.7317 -91.7000 77° East 555 639 43,000  Level Chicago Center
09:53PM 40.7669 -91.5011 77° East 559 643 43,000  Level Chicago Center
09:54PM 40.8072 -91.2636 77° East 556 640 43,000  Level Chicago Center
09:55PM 40.8411 -91.0653 77° East 555 639 43,000  Level Chicago Center
09:56PM 40.8742 -90.8667 78° East 553 636 43,000  Level Chicago Center
09:57PM 40.9067 -90.6669 78° East 556 640 43,000  Level Chicago Center
09:58PM 40.9394 -90.4683 78° East 551 634 43,000  Level Chicago Center
09:59PM 40.9722 -90.2672 78° East 554 638 43,000  Level Chicago Center
10:00PM 41.0053 -90.0664 78° East 554 638 43,000  Level Chicago Center
10:01PM 41.0367 -89.8639 78° East 554 638 43,000  Level Chicago Center
10:02PM 41.0678 -89.6631 78° East 551 634 43,000  Level Chicago Center
10:03PM 41.0978 -89.4650 79° East 545 627 43,000  Level Chicago Center
10:04PM 41.1275 -89.2669 79° East 546 628 43,000  Level Chicago Center
10:05PM 41.1575 -89.0631 79° East 537 618 43,000  Level Chicago Center
10:06PM 41.1856 -88.8689 79° East 540 621 43,000  Level Chicago Center
10:07PM 41.2203 -88.6347 79° East 542 624 43,000  Level Chicago Center
10:08PM 41.2494 -88.4381 79° East 551 634 43,000  Level Chicago Center
10:09PM 41.2750 -88.2489 80° East 532 612 43,000  Level Chicago Center
10:10PM 41.3017 -88.0572 79° East 543 625 43,000  Level Chicago Center
10:11PM 41.3272 -87.8642 80° East 549 632 43,000  Level Chicago Center
10:12PM 41.3614 -87.6342 79° East 539 620 43,000  Level Chicago Center
10:13PM 41.3878 -87.4408 80° East 538 619 43,000  Level Chicago Center
10:14PM 41.4139 -87.2467 80° East 538 619 43,000  Level Chicago Center
10:15PM 41.4397 -87.0500 80° East 543 625 43,000  Level Chicago Center
10:16PM 41.4644 -86.8514 81° East 547 629 43,000  Level Chicago Center
10:17PM 41.4886 -86.6653 80° East 548 631 43,000  Level Chicago Center
10:18PM 41.5181 -86.4253 81° East 548 631 43,000  Level Chicago Center
10:19PM 41.5439 -86.2261 80° East 546 628 43,000  Level Chicago Center
10:20PM 41.5667 -86.0256 81° East 549 632 43,000  Level Chicago Center
10:21PM 41.5917 -85.8242 81° East 552 635 43,000  Level Chicago Center
10:22PM 41.6150 -85.6247 81° East 546 628 43,000  Level Chicago Center
10:23PM 41.6369 -85.4347 81° East 548 631 43,000  Level Chicago Center
10:24PM 41.6650 -85.1967 81° East 571 657 43,000  Level Chicago Center
10:25PM 41.6875 -84.9964 81° East 552 635 43,000  Level Chicago Center
10:26PM 41.7100 -84.7953 81° East 547 629 43,000  Level Chicago Center
10:27PM 41.7311 -84.5958 82° East 544 626 43,000  Level Cleveland Center
10:28PM 41.7550 -84.3914 81° East 544 626 43,000  Level Cleveland Center
10:29PM 41.7689 -84.2139 84° East 544 626 43,000  Level Cleveland Center
10:30PM 41.7897 -84.0117 82° East 544 626 43,000  Level Cleveland Center
10:31PM 41.8103 -83.8094 82° East 544 626 43,000  Level Cleveland Center
10:32PM 41.8264 -83.6039 84° East 539 620 43,000  Level Cleveland Center
10:33PM 41.8336 -83.4008 87° East 539 620 43,000  Level Cleveland Center
10:34PM 41.8383 -83.1975 88° East 539 620 43,000  Level Cleveland Center
10:35PM 41.8450 -82.9942 87° East 539 620 43,000  Level Cleveland Center
10:36PM 41.8511 -82.7881 88° East 545 627 43,000  Level Cleveland Center
10:37PM 41.8547 -82.5903 89° East 545 627 43,000  Level Cleveland Center
10:38PM 41.8581 -82.3897 89° East 540 621 43,000  Level Cleveland Center
10:39PM 41.8633 -82.1892 88° East 529 609 43,000  Level Cleveland Center
10:40PM 41.8683 -81.9661 88° East 539 620 43,000  Level Cleveland Center
10:41PM 41.8725 -81.7683 88° East 539 620 43,000  Level Cleveland Center
10:42PM 41.8744 -81.5675 89° East 534 615 43,000 -360 Level Cleveland Center
10:43PM 41.8761 -81.3694 89° East 534 615 42,300 -960 Descending Cleveland Center
10:44PM 41.8794 -81.1575 89° East 555 639 41,100 -1,200 Descending Cleveland Center
10:45PM 41.8803 -80.9514 90° East 555 639 40,000 -1,080 Descending Cleveland Center
10:46PM 41.8764 -80.7672 92° East 548 631 39,000 -540 Descending Cleveland Center
10:47PM 41.8683 -80.5608 93° East 555 639 39,000  Level Cleveland Center
10:48PM 41.8575 -80.3517 94° East 555 639 39,000  Level Cleveland Center
10:49PM 41.8486 -80.1428 93° East 555 639 39,000  Level Cleveland Center
10:50PM 41.8414 -79.9422 93° East 555 639 39,000  Level Cleveland Center
10:51PM 41.8297 -79.7192 94° East 555 639 39,000  Level Cleveland Center
10:52PM 41.8217 -79.5328 93° East 555 639 39,000  Level Cleveland Center
10:53PM 41.8114 -79.3267 94° East 555 639 39,000  Level Cleveland Center
10:54PM 41.8006 -79.1208 94° East 555 639 39,000 -300 Level Cleveland Center
10:55PM 41.7894 -78.9150 94° East 555 639 38,500 -780 Descending Cleveland Center
10:56PM 41.7781 -78.7147 94° East 555 639 37,500 -780 Descending Cleveland Center
10:57PM 41.7661 -78.5119 94° East 550 633 37,000 -840 Descending Cleveland Center
10:58PM 41.7542 -78.3119 95° East 550 633 35,900 -1,020 Descending Cleveland Center
10:59PM 41.7436 -78.1119 94° East 545 627 35,000 -420 Descending Cleveland Center
11:00PM 41.7292 -77.8836 95° East 552 635 35,000  Level New York Center
11:01PM 41.7158 -77.6878 95° East 552 635 35,000  Level New York Center
11:02PM 41.7022 -77.4889 95° East 541 623 35,000 -180 Level New York Center
11:03PM 41.6886 -77.2847 95° East 541 623 34,700 -660 Descending New York Center
11:04PM 41.6617 -77.0850 100° East 541 623 33,700 -1,020 Descending New York Center
11:05PM 41.6075 -76.8883 110° East 554 638 32,700 -1,080 Descending New York Center
11:06PM 41.5494 -76.6753 110° East 559 643 31,600 -1,200 Descending New York Center
11:07PM 41.4928 -76.4736 111° Southeast 559 643 30,400 -2,280 Descending New York Center
11:08PM 41.4414 -76.2836 110° East 564 649 27,100 -2,820 Descending New York Center
11:09PM 41.3928 -76.1139 111° Southeast 557 641 24,800 -2,580 Descending New York Center
11:10PM 41.3461 -75.9442 110° East 525 604 22,000 -2,700 Descending New York Center
11:11PM 41.2992 -75.7806 111° Southeast 491 565 19,500 -2,040 Descending New York Center
11:12PM 41.2439 -75.6053 113° Southeast 469 540 17,900 -2,040 Descending New York Center
11:13PM 41.1939 -75.4500 113° Southeast 456 525 15,400 -2,580 Descending New York Center
11:14PM 41.1508 -75.3258 115° Southeast 427 491 12,700 -2,580 Descending New York Center
11:15PM 41.1117 -75.2047 113° Southeast 384 442 10,400 -2,280 Descending New York Center
11:16PM 41.0742 -75.0950 114° Southeast 306 352 8,200 -1,920 Descending New York Center
11:17PM 41.0439 -75.0050 114° Southeast 279 321 6,500 -1,080 Descending New York Center
11:18PM 41.0117 -74.9206 117° Southeast 279 321 6,100 -660 Descending New York Center
11:19PM 40.9947 -74.8067 101° East 281 323 5,200 -1,020 Descending New York Center
11:20PM 40.9997 -74.7192 86° East 269 310 4,100 -1,080 Descending New York Center
11:21PM 41.0033 -74.6119 87° East 264 304 3,100 -540 Descending New York Center
11:22PM 41.0061 -74.5214 88° East 264 304 3,100  Level New York Center
11:23PM 41.0117 -74.4147 86° East 269 310 3,100  Level New York Center
11:24PM 41.0164 -74.3242 86° East 269 310 3,100 -360 Level New York Center
11:25PM 41.0197 -74.2197 88° East 264 304 2,400 -840 Descending New York Center
11:26PM 41.0167 -74.1833 96° East 263 303 2,100 -240 Descending New York TRACON
11:27PM 41.0167 -74.1000 90° East 246 283 2,100  Level New York TRACON
11:28PM 40.9833 -74.0667 143° Southeast 226 260 2,100 -480 Level New York TRACON
11:29PM 40.9167 -74.0500 169° South 213 245 1,300 -720 Descending New York TRACON
11:30PM 40.8344 -74.0622 186° South 181 208 200 -600 Descending New York Center
11:32PM 40.8501 -74.0608 North  Level Estimated
11:39PM 40.8501 -74.0608 65° Northeast  Level Estimated